sensor_id;sensor_type;location;lat;lon;timestamp;temperature;humidity
37232;DHT22;23125;48.156;15.954;2023-12-20T00:01:10;4.20;57.00
37232;DHT22;23125;48.156;15.954;2023-12-20T00:03:35;4.20;57.00
37232;DHT22;23125;48.156;15.954;2023-12-20T00:06:01;4.20;57.20
37232;DHT22;23125;48.156;15.954;2023-12-20T00:08:27;4.20;57.20
37232;DHT22;23125;48.156;15.954;2023-12-20T00:10:53;4.20;57.20
37232;DHT22;23125;48.156;15.954;2023-12-20T00:13:19;4.20;57.30
37232;DHT22;23125;48.156;15.954;2023-12-20T00:15:45;4.20;57.40
37232;DHT22;23125;48.156;15.954;2023-12-20T00:18:11;4.20;57.40
37232;DHT22;23125;48.156;15.954;2023-12-20T00:20:37;4.20;57.40
37232;DHT22;23125;48.156;15.954;2023-12-20T00:23:03;4.20;57.50
37232;DHT22;23125;48.156;15.954;2023-12-20T00:25:29;4.20;58.10
37232;DHT22;23125;48.156;15.954;2023-12-20T00:27:55;4.20;57.70
37232;DHT22;23125;48.156;15.954;2023-12-20T00:30:21;4.20;57.70
37232;DHT22;23125;48.156;15.954;2023-12-20T00:32:46;4.20;57.90
37232;DHT22;23125;48.156;15.954;2023-12-20T00:35:13;4.30;58.00
37232;DHT22;23125;48.156;15.954;2023-12-20T00:37:39;4.30;58.30
37232;DHT22;23125;48.156;15.954;2023-12-20T00:40:06;4.30;58.40
37232;DHT22;23125;48.156;15.954;2023-12-20T00:42:32;4.40;58.60
37232;DHT22;23125;48.156;15.954;2023-12-20T00:44:59;4.40;58.70
37232;DHT22;23125;48.156;15.954;2023-12-20T00:47:25;4.50;58.80
37232;DHT22;23125;48.156;15.954;2023-12-20T00:49:51;4.50;58.80
37232;DHT22;23125;48.156;15.954;2023-12-20T00:52:18;4.60;59.30
37232;DHT22;23125;48.156;15.954;2023-12-20T00:54:45;4.60;58.70
37232;DHT22;23125;48.156;15.954;2023-12-20T00:57:11;4.70;58.70
37232;DHT22;23125;48.156;15.954;2023-12-20T00:59:36;4.70;58.80
37232;DHT22;23125;48.156;15.954;2023-12-20T01:02:02;4.70;59.40
37232;DHT22;23125;48.156;15.954;2023-12-20T01:04:28;4.80;59.00
37232;DHT22;23125;48.156;15.954;2023-12-20T01:06:54;4.80;59.20
37232;DHT22;23125;48.156;15.954;2023-12-20T01:09:20;4.90;59.30
37232;DHT22;23125;48.156;15.954;2023-12-20T01:11:49;5.00;59.30
37232;DHT22;23125;48.156;15.954;2023-12-20T01:14:15;5.00;59.30
37232;DHT22;23125;48.156;15.954;2023-12-20T01:16:41;5.00;59.20
37232;DHT22;23125;48.156;15.954;2023-12-20T01:19:07;5.10;59.30
37232;DHT22;23125;48.156;15.954;2023-12-20T01:21:32;5.10;59.30
37232;DHT22;23125;48.156;15.954;2023-12-20T01:23:58;5.20;59.30
37232;DHT22;23125;48.156;15.954;2023-12-20T01:26:24;5.20;59.30
37232;DHT22;23125;48.156;15.954;2023-12-20T01:28:50;5.20;59.30
37232;DHT22;23125;48.156;15.954;2023-12-20T01:31:16;5.20;59.30
37232;DHT22;23125;48.156;15.954;2023-12-20T01:33:41;5.30;59.40
37232;DHT22;23125;48.156;15.954;2023-12-20T01:36:07;5.30;59.40
37232;DHT22;23125;48.156;15.954;2023-12-20T01:38:34;5.40;59.60
37232;DHT22;23125;48.156;15.954;2023-12-20T01:41:00;5.40;59.60
37232;DHT22;23125;48.156;15.954;2023-12-20T01:43:26;5.50;59.70
37232;DHT22;23125;48.156;15.954;2023-12-20T01:45:52;5.50;59.70
37232;DHT22;23125;48.156;15.954;2023-12-20T01:48:18;5.60;59.70
37232;DHT22;23125;48.156;15.954;2023-12-20T01:50:45;5.60;59.90
37232;DHT22;23125;48.156;15.954;2023-12-20T01:53:12;5.70;59.90
37232;DHT22;23125;48.156;15.954;2023-12-20T01:55:40;5.80;60.00
37232;DHT22;23125;48.156;15.954;2023-12-20T01:58:10;5.80;59.80
37232;DHT22;23125;48.156;15.954;2023-12-20T02:00:36;5.90;59.90
37232;DHT22;23125;48.156;15.954;2023-12-20T02:03:03;6.00;60.60
37232;DHT22;23125;48.156;15.954;2023-12-20T02:05:31;6.20;61.10
37232;DHT22;23125;48.156;15.954;2023-12-20T02:07:57;6.30;60.80
37232;DHT22;23125;48.156;15.954;2023-12-20T02:10:23;6.40;60.60
37232;DHT22;23125;48.156;15.954;2023-12-20T02:12:50;6.50;60.50
37232;DHT22;23125;48.156;15.954;2023-12-20T02:15:16;6.50;60.40
37232;DHT22;23125;48.156;15.954;2023-12-20T02:17:42;6.70;60.50
37232;DHT22;23125;48.156;15.954;2023-12-20T02:20:08;6.70;60.40
37232;DHT22;23125;48.156;15.954;2023-12-20T02:22:35;6.80;60.20
37232;DHT22;23125;48.156;15.954;2023-12-20T02:25:01;6.90;60.20
37232;DHT22;23125;48.156;15.954;2023-12-20T02:27:27;7.00;60.00
37232;DHT22;23125;48.156;15.954;2023-12-20T02:29:54;7.00;59.80
37232;DHT22;23125;48.156;15.954;2023-12-20T02:32:21;7.10;59.60
37232;DHT22;23125;48.156;15.954;2023-12-20T02:34:48;7.10;59.40
37232;DHT22;23125;48.156;15.954;2023-12-20T02:37:14;7.10;59.20
37232;DHT22;23125;48.156;15.954;2023-12-20T02:39:40;7.10;59.00
37232;DHT22;23125;48.156;15.954;2023-12-20T02:42:06;7.10;58.90
37232;DHT22;23125;48.156;15.954;2023-12-20T02:44:32;7.10;58.80
37232;DHT22;23125;48.156;15.954;2023-12-20T02:46:58;7.10;58.70
37232;DHT22;23125;48.156;15.954;2023-12-20T02:49:23;7.10;58.60
37232;DHT22;23125;48.156;15.954;2023-12-20T02:51:49;7.10;58.60
37232;DHT22;23125;48.156;15.954;2023-12-20T02:54:15;7.10;58.40
37232;DHT22;23125;48.156;15.954;2023-12-20T02:56:41;7.00;58.40
37232;DHT22;23125;48.156;15.954;2023-12-20T02:59:07;7.00;58.40
37232;DHT22;23125;48.156;15.954;2023-12-20T03:01:35;7.00;58.50
37232;DHT22;23125;48.156;15.954;2023-12-20T03:04:01;7.00;58.50
37232;DHT22;23125;48.156;15.954;2023-12-20T03:06:27;7.00;58.40
37232;DHT22;23125;48.156;15.954;2023-12-20T03:08:53;7.00;58.50
37232;DHT22;23125;48.156;15.954;2023-12-20T03:11:19;7.00;58.60
37232;DHT22;23125;48.156;15.954;2023-12-20T03:13:45;7.10;58.80
37232;DHT22;23125;48.156;15.954;2023-12-20T03:16:11;7.10;58.90
37232;DHT22;23125;48.156;15.954;2023-12-20T03:18:37;7.10;58.90
37232;DHT22;23125;48.156;15.954;2023-12-20T03:21:05;7.20;58.90
37232;DHT22;23125;48.156;15.954;2023-12-20T03:23:31;7.20;58.80
37232;DHT22;23125;48.156;15.954;2023-12-20T03:26:01;7.20;58.70
37232;DHT22;23125;48.156;15.954;2023-12-20T03:28:27;7.20;58.70
37232;DHT22;23125;48.156;15.954;2023-12-20T03:30:54;7.20;58.60
37232;DHT22;23125;48.156;15.954;2023-12-20T03:33:19;7.30;58.60
37232;DHT22;23125;48.156;15.954;2023-12-20T03:35:46;7.30;58.60
37232;DHT22;23125;48.156;15.954;2023-12-20T03:38:12;7.30;58.70
37232;DHT22;23125;48.156;15.954;2023-12-20T03:40:38;7.30;58.60
37232;DHT22;23125;48.156;15.954;2023-12-20T03:43:04;7.40;58.70
37232;DHT22;23125;48.156;15.954;2023-12-20T03:45:29;7.40;58.60
37232;DHT22;23125;48.156;15.954;2023-12-20T03:47:55;7.40;58.60
37232;DHT22;23125;48.156;15.954;2023-12-20T03:50:22;7.40;58.50
37232;DHT22;23125;48.156;15.954;2023-12-20T03:52:48;7.40;58.40
37232;DHT22;23125;48.156;15.954;2023-12-20T03:55:15;7.40;58.30
37232;DHT22;23125;48.156;15.954;2023-12-20T03:57:41;7.50;58.40
37232;DHT22;23125;48.156;15.954;2023-12-20T04:00:08;7.50;58.40
37232;DHT22;23125;48.156;15.954;2023-12-20T04:02:41;7.50;58.30
37232;DHT22;23125;48.156;15.954;2023-12-20T04:05:08;7.50;58.30
37232;DHT22;23125;48.156;15.954;2023-12-20T04:07:35;7.60;58.30
37232;DHT22;23125;48.156;15.954;2023-12-20T04:10:02;7.50;58.10
37232;DHT22;23125;48.156;15.954;2023-12-20T04:12:30;7.60;58.20
37232;DHT22;23125;48.156;15.954;2023-12-20T04:14:56;7.50;58.10
37232;DHT22;23125;48.156;15.954;2023-12-20T04:17:23;7.60;58.10
37232;DHT22;23125;48.156;15.954;2023-12-20T04:19:49;7.60;58.10
37232;DHT22;23125;48.156;15.954;2023-12-20T04:22:16;7.60;58.00
37232;DHT22;23125;48.156;15.954;2023-12-20T04:24:42;7.60;58.20
37232;DHT22;23125;48.156;15.954;2023-12-20T04:27:08;7.60;58.40
37232;DHT22;23125;48.156;15.954;2023-12-20T04:29:34;7.70;58.30
37232;DHT22;23125;48.156;15.954;2023-12-20T04:32:00;7.70;58.40
37232;DHT22;23125;48.156;15.954;2023-12-20T04:34:26;7.70;58.40
37232;DHT22;23125;48.156;15.954;2023-12-20T04:36:52;7.80;58.40
37232;DHT22;23125;48.156;15.954;2023-12-20T04:39:19;7.80;58.40
37232;DHT22;23125;48.156;15.954;2023-12-20T04:41:44;7.90;58.40
37232;DHT22;23125;48.156;15.954;2023-12-20T04:44:10;7.90;58.30
37232;DHT22;23125;48.156;15.954;2023-12-20T04:46:36;8.00;58.40
37232;DHT22;23125;48.156;15.954;2023-12-20T04:49:02;8.00;58.30
37232;DHT22;23125;48.156;15.954;2023-12-20T04:51:28;8.10;58.30
37232;DHT22;23125;48.156;15.954;2023-12-20T04:53:54;8.10;58.20
37232;DHT22;23125;48.156;15.954;2023-12-20T04:56:20;8.10;58.10
37232;DHT22;23125;48.156;15.954;2023-12-20T04:58:45;8.10;58.20
37232;DHT22;23125;48.156;15.954;2023-12-20T05:01:12;8.20;58.20
37232;DHT22;23125;48.156;15.954;2023-12-20T05:03:38;8.20;58.20
37232;DHT22;23125;48.156;15.954;2023-12-20T05:06:04;8.30;58.30
37232;DHT22;23125;48.156;15.954;2023-12-20T05:08:30;8.30;58.20
37232;DHT22;23125;48.156;15.954;2023-12-20T05:10:56;8.30;58.10
37232;DHT22;23125;48.156;15.954;2023-12-20T05:13:22;8.30;58.60
37232;DHT22;23125;48.156;15.954;2023-12-20T05:15:48;8.40;58.10
37232;DHT22;23125;48.156;15.954;2023-12-20T05:18:14;8.40;58.00
37232;DHT22;23125;48.156;15.954;2023-12-20T05:20:40;8.40;58.00
37232;DHT22;23125;48.156;15.954;2023-12-20T05:23:06;8.40;58.00
37232;DHT22;23125;48.156;15.954;2023-12-20T05:25:32;8.50;57.90
37232;DHT22;23125;48.156;15.954;2023-12-20T05:27:58;8.50;58.00
37232;DHT22;23125;48.156;15.954;2023-12-20T05:30:24;8.50;58.00
37232;DHT22;23125;48.156;15.954;2023-12-20T05:32:50;8.60;58.00
37232;DHT22;23125;48.156;15.954;2023-12-20T05:35:17;8.60;58.00
37232;DHT22;23125;48.156;15.954;2023-12-20T05:37:43;8.60;58.00
37232;DHT22;23125;48.156;15.954;2023-12-20T05:40:10;8.60;57.90
37232;DHT22;23125;48.156;15.954;2023-12-20T05:42:37;8.70;58.00
37232;DHT22;23125;48.156;15.954;2023-12-20T05:45:04;8.70;58.00
37232;DHT22;23125;48.156;15.954;2023-12-20T05:47:31;8.70;57.90
37232;DHT22;23125;48.156;15.954;2023-12-20T05:49:57;8.80;57.90
37232;DHT22;23125;48.156;15.954;2023-12-20T05:52:23;8.80;57.90
37232;DHT22;23125;48.156;15.954;2023-12-20T05:54:49;8.80;57.90
37232;DHT22;23125;48.156;15.954;2023-12-20T05:57:14;8.80;57.90
37232;DHT22;23125;48.156;15.954;2023-12-20T05:59:40;8.80;57.80
37232;DHT22;23125;48.156;15.954;2023-12-20T06:02:06;8.90;57.80
37232;DHT22;23125;48.156;15.954;2023-12-20T06:04:32;8.90;57.70
37232;DHT22;23125;48.156;15.954;2023-12-20T06:06:59;9.00;57.70
37232;DHT22;23125;48.156;15.954;2023-12-20T06:09:27;9.00;57.70
37232;DHT22;23125;48.156;15.954;2023-12-20T06:11:52;9.00;57.60
37232;DHT22;23125;48.156;15.954;2023-12-20T06:14:19;9.00;57.50
37232;DHT22;23125;48.156;15.954;2023-12-20T06:16:45;9.00;57.60
37232;DHT22;23125;48.156;15.954;2023-12-20T06:19:11;9.10;57.60
37232;DHT22;23125;48.156;15.954;2023-12-20T06:21:37;9.10;57.50
37232;DHT22;23125;48.156;15.954;2023-12-20T06:24:04;9.20;57.90
37232;DHT22;23125;48.156;15.954;2023-12-20T06:26:29;9.20;57.50
37232;DHT22;23125;48.156;15.954;2023-12-20T06:28:56;9.20;57.40
37232;DHT22;23125;48.156;15.954;2023-12-20T06:31:22;9.20;57.30
37232;DHT22;23125;48.156;15.954;2023-12-20T06:33:48;9.30;57.30
37232;DHT22;23125;48.156;15.954;2023-12-20T06:36:23;9.30;57.20
37232;DHT22;23125;48.156;15.954;2023-12-20T06:38:50;9.30;57.20
37232;DHT22;23125;48.156;15.954;2023-12-20T06:41:16;9.30;57.30
37232;DHT22;23125;48.156;15.954;2023-12-20T06:43:42;9.40;57.40
37232;DHT22;23125;48.156;15.954;2023-12-20T06:46:08;9.40;57.30
37232;DHT22;23125;48.156;15.954;2023-12-20T06:48:34;9.40;57.20
37232;DHT22;23125;48.156;15.954;2023-12-20T06:51:01;9.50;57.20
37232;DHT22;23125;48.156;15.954;2023-12-20T06:53:28;9.50;57.20
37232;DHT22;23125;48.156;15.954;2023-12-20T06:55:54;9.50;57.20
37232;DHT22;23125;48.156;15.954;2023-12-20T06:58:22;9.50;57.70
37232;DHT22;23125;48.156;15.954;2023-12-20T07:00:48;9.60;57.20
37232;DHT22;23125;48.156;15.954;2023-12-20T07:03:14;9.60;57.10
37232;DHT22;23125;48.156;15.954;2023-12-20T07:05:40;9.60;57.10
37232;DHT22;23125;48.156;15.954;2023-12-20T07:08:07;9.60;57.00
37232;DHT22;23125;48.156;15.954;2023-12-20T07:10:33;9.60;57.00
37232;DHT22;23125;48.156;15.954;2023-12-20T07:12:58;9.60;57.00
37232;DHT22;23125;48.156;15.954;2023-12-20T07:15:24;9.60;57.00
37232;DHT22;23125;48.156;15.954;2023-12-20T07:17:50;9.60;57.00
37232;DHT22;23125;48.156;15.954;2023-12-20T07:20:16;9.70;57.10
37232;DHT22;23125;48.156;15.954;2023-12-20T07:22:43;9.70;57.10
37232;DHT22;23125;48.156;15.954;2023-12-20T07:25:08;9.70;57.10
37232;DHT22;23125;48.156;15.954;2023-12-20T07:27:34;9.70;57.10
37232;DHT22;23125;48.156;15.954;2023-12-20T07:30:00;9.70;57.50
37232;DHT22;23125;48.156;15.954;2023-12-20T07:32:26;9.70;56.90
37232;DHT22;23125;48.156;15.954;2023-12-20T07:34:52;9.80;57.20
37232;DHT22;23125;48.156;15.954;2023-12-20T07:37:19;9.80;56.80
37232;DHT22;23125;48.156;15.954;2023-12-20T07:39:46;9.80;56.90
37232;DHT22;23125;48.156;15.954;2023-12-20T07:42:12;9.80;56.90
37232;DHT22;23125;48.156;15.954;2023-12-20T07:44:38;9.90;56.90
37232;DHT22;23125;48.156;15.954;2023-12-20T07:47:04;9.80;56.80
37232;DHT22;23125;48.156;15.954;2023-12-20T07:49:31;9.90;56.90
37232;DHT22;23125;48.156;15.954;2023-12-20T07:51:57;9.90;56.80
37232;DHT22;23125;48.156;15.954;2023-12-20T07:54:23;9.90;56.90
37232;DHT22;23125;48.156;15.954;2023-12-20T07:56:49;10.00;56.90
37232;DHT22;23125;48.156;15.954;2023-12-20T07:59:15;9.90;56.90
37232;DHT22;23125;48.156;15.954;2023-12-20T08:01:41;10.00;56.90
37232;DHT22;23125;48.156;15.954;2023-12-20T08:04:08;10.00;57.40
37232;DHT22;23125;48.156;15.954;2023-12-20T08:06:34;10.00;56.80
37232;DHT22;23125;48.156;15.954;2023-12-20T08:09:00;10.00;56.80
37232;DHT22;23125;48.156;15.954;2023-12-20T08:11:26;10.00;56.70
37232;DHT22;23125;48.156;15.954;2023-12-20T08:13:51;10.00;56.80
37232;DHT22;23125;48.156;15.954;2023-12-20T08:16:17;10.10;56.90
37232;DHT22;23125;48.156;15.954;2023-12-20T08:18:44;10.10;56.80
37232;DHT22;23125;48.156;15.954;2023-12-20T08:21:09;10.10;56.80
37232;DHT22;23125;48.156;15.954;2023-12-20T08:23:37;10.10;56.80
37232;DHT22;23125;48.156;15.954;2023-12-20T08:26:06;10.10;56.80
37232;DHT22;23125;48.156;15.954;2023-12-20T08:28:33;10.10;56.70
37232;DHT22;23125;48.156;15.954;2023-12-20T08:30:59;10.10;56.70
37232;DHT22;23125;48.156;15.954;2023-12-20T08:33:26;10.10;56.70
37232;DHT22;23125;48.156;15.954;2023-12-20T08:35:52;10.10;56.60
37232;DHT22;23125;48.156;15.954;2023-12-20T08:38:17;10.10;56.60
37232;DHT22;23125;48.156;15.954;2023-12-20T08:40:44;10.10;56.60
37232;DHT22;23125;48.156;15.954;2023-12-20T08:43:10;10.10;56.60
37232;DHT22;23125;48.156;15.954;2023-12-20T08:45:37;10.10;56.70
37232;DHT22;23125;48.156;15.954;2023-12-20T08:48:04;10.10;56.70
37232;DHT22;23125;48.156;15.954;2023-12-20T08:50:31;10.10;56.70
37232;DHT22;23125;48.156;15.954;2023-12-20T08:52:57;10.10;56.80
37232;DHT22;23125;48.156;15.954;2023-12-20T08:55:22;10.10;56.80
37232;DHT22;23125;48.156;15.954;2023-12-20T08:57:48;10.10;56.90
37232;DHT22;23125;48.156;15.954;2023-12-20T09:00:15;10.10;57.00
37232;DHT22;23125;48.156;15.954;2023-12-20T09:02:42;10.10;57.10
37232;DHT22;23125;48.156;15.954;2023-12-20T09:05:08;10.10;57.30
37232;DHT22;23125;48.156;15.954;2023-12-20T09:07:34;10.10;57.30
37232;DHT22;23125;48.156;15.954;2023-12-20T09:10:00;10.10;57.50
37232;DHT22;23125;48.156;15.954;2023-12-20T09:12:26;10.10;57.40
37232;DHT22;23125;48.156;15.954;2023-12-20T09:14:53;10.20;57.50
37232;DHT22;23125;48.156;15.954;2023-12-20T09:17:19;10.20;57.40
37232;DHT22;23125;48.156;15.954;2023-12-20T09:19:47;10.10;57.40
37232;DHT22;23125;48.156;15.954;2023-12-20T09:22:13;10.20;57.50
37232;DHT22;23125;48.156;15.954;2023-12-20T09:24:39;10.10;57.50
37232;DHT22;23125;48.156;15.954;2023-12-20T09:27:05;10.10;57.50
37232;DHT22;23125;48.156;15.954;2023-12-20T09:29:32;10.10;57.50
37232;DHT22;23125;48.156;15.954;2023-12-20T09:31:57;10.10;57.50
37232;DHT22;23125;48.156;15.954;2023-12-20T09:34:24;10.00;57.50
37232;DHT22;23125;48.156;15.954;2023-12-20T09:36:51;10.00;57.60
37232;DHT22;23125;48.156;15.954;2023-12-20T09:39:19;10.00;57.70
37232;DHT22;23125;48.156;15.954;2023-12-20T09:41:49;9.90;57.60
37232;DHT22;23125;48.156;15.954;2023-12-20T09:44:18;9.90;57.90
37232;DHT22;23125;48.156;15.954;2023-12-20T09:46:47;9.80;57.90
37232;DHT22;23125;48.156;15.954;2023-12-20T09:49:17;9.90;58.10
37232;DHT22;23125;48.156;15.954;2023-12-20T09:51:46;9.80;58.30
37232;DHT22;23125;48.156;15.954;2023-12-20T09:54:16;9.80;58.30
37232;DHT22;23125;48.156;15.954;2023-12-20T09:56:42;9.80;58.50
37232;DHT22;23125;48.156;15.954;2023-12-20T09:59:08;9.80;58.60
37232;DHT22;23125;48.156;15.954;2023-12-20T10:01:35;9.80;58.70
37232;DHT22;23125;48.156;15.954;2023-12-20T10:04:05;9.80;58.70
37232;DHT22;23125;48.156;15.954;2023-12-20T10:06:46;9.80;58.80
37232;DHT22;23125;48.156;15.954;2023-12-20T10:09:12;9.80;58.80
37232;DHT22;23125;48.156;15.954;2023-12-20T10:11:39;9.80;59.00
37232;DHT22;23125;48.156;15.954;2023-12-20T10:14:05;9.90;59.10
37232;DHT22;23125;48.156;15.954;2023-12-20T10:16:32;9.80;59.00
37232;DHT22;23125;48.156;15.954;2023-12-20T10:18:59;9.90;59.10
37232;DHT22;23125;48.156;15.954;2023-12-20T10:21:27;9.90;59.20
37232;DHT22;23125;48.156;15.954;2023-12-20T10:23:57;9.90;59.20
37232;DHT22;23125;48.156;15.954;2023-12-20T10:26:26;9.90;59.20
37232;DHT22;23125;48.156;15.954;2023-12-20T10:28:56;9.90;59.30
37232;DHT22;23125;48.156;15.954;2023-12-20T10:31:30;9.90;59.40
37232;DHT22;23125;48.156;15.954;2023-12-20T10:34:00;9.90;59.40
37232;DHT22;23125;48.156;15.954;2023-12-20T10:36:27;9.90;59.50
37232;DHT22;23125;48.156;15.954;2023-12-20T10:38:54;9.90;59.60
37232;DHT22;23125;48.156;15.954;2023-12-20T10:41:29;9.90;59.60
37232;DHT22;23125;48.156;15.954;2023-12-20T10:44:00;10.00;59.70
37232;DHT22;23125;48.156;15.954;2023-12-20T10:46:27;10.00;59.70
37232;DHT22;23125;48.156;15.954;2023-12-20T10:48:54;10.00;59.80
37232;DHT22;23125;48.156;15.954;2023-12-20T10:51:21;10.00;60.00
37232;DHT22;23125;48.156;15.954;2023-12-20T10:53:49;10.00;60.00
37232;DHT22;23125;48.156;15.954;2023-12-20T10:56:19;10.10;60.20
37232;DHT22;23125;48.156;15.954;2023-12-20T10:58:47;10.10;60.20
37232;DHT22;23125;48.156;15.954;2023-12-20T11:01:19;10.10;60.10
37232;DHT22;23125;48.156;15.954;2023-12-20T11:03:50;10.10;60.10
37232;DHT22;23125;48.156;15.954;2023-12-20T11:09:14;10.10;60.10
37232;DHT22;23125;48.156;15.954;2023-12-20T11:17:12;10.20;60.20
37232;DHT22;23125;48.156;15.954;2023-12-20T11:22:29;10.20;60.30
37232;DHT22;23125;48.156;15.954;2023-12-20T11:25:06;10.20;60.20
37232;DHT22;23125;48.156;15.954;2023-12-20T11:27:34;10.20;60.30
37232;DHT22;23125;48.156;15.954;2023-12-20T11:30:03;10.20;60.20
37232;DHT22;23125;48.156;15.954;2023-12-20T11:32:37;10.20;60.20
37232;DHT22;23125;48.156;15.954;2023-12-20T11:37:37;10.20;60.20
37232;DHT22;23125;48.156;15.954;2023-12-20T11:40:08;10.20;60.30
37232;DHT22;23125;48.156;15.954;2023-12-20T11:42:49;10.20;60.20
37232;DHT22;23125;48.156;15.954;2023-12-20T11:45:17;10.20;60.20
37232;DHT22;23125;48.156;15.954;2023-12-20T11:47:48;10.30;60.30
37232;DHT22;23125;48.156;15.954;2023-12-20T11:50:19;10.30;60.30
37232;DHT22;23125;48.156;15.954;2023-12-20T11:52:46;10.30;60.30
37232;DHT22;23125;48.156;15.954;2023-12-20T11:55:12;10.30;60.50
37232;DHT22;23125;48.156;15.954;2023-12-20T11:57:38;10.30;60.50
37232;DHT22;23125;48.156;15.954;2023-12-20T12:00:05;10.30;60.50
37232;DHT22;23125;48.156;15.954;2023-12-20T12:02:32;10.30;60.50
37232;DHT22;23125;48.156;15.954;2023-12-20T12:04:59;10.30;60.40
37232;DHT22;23125;48.156;15.954;2023-12-20T12:07:26;10.30;60.40
37232;DHT22;23125;48.156;15.954;2023-12-20T12:09:52;10.40;60.40
37232;DHT22;23125;48.156;15.954;2023-12-20T12:12:19;10.40;60.30
37232;DHT22;23125;48.156;15.954;2023-12-20T12:14:46;10.40;60.40
37232;DHT22;23125;48.156;15.954;2023-12-20T12:17:15;10.40;60.30
37232;DHT22;23125;48.156;15.954;2023-12-20T12:19:42;10.40;60.20
37232;DHT22;23125;48.156;15.954;2023-12-20T12:22:13;10.40;60.30
37232;DHT22;23125;48.156;15.954;2023-12-20T12:24:42;10.40;60.40
37232;DHT22;23125;48.156;15.954;2023-12-20T12:27:09;10.40;60.20
37232;DHT22;23125;48.156;15.954;2023-12-20T12:29:37;10.40;60.30
37232;DHT22;23125;48.156;15.954;2023-12-20T12:32:09;10.40;60.30
37232;DHT22;23125;48.156;15.954;2023-12-20T12:34:36;10.40;60.40
37232;DHT22;23125;48.156;15.954;2023-12-20T12:37:03;10.40;60.40
37232;DHT22;23125;48.156;15.954;2023-12-20T12:39:30;10.40;60.40
37232;DHT22;23125;48.156;15.954;2023-12-20T12:41:56;10.40;60.40
37232;DHT22;23125;48.156;15.954;2023-12-20T12:44:25;10.40;60.40
37232;DHT22;23125;48.156;15.954;2023-12-20T12:46:51;10.40;60.40
37232;DHT22;23125;48.156;15.954;2023-12-20T12:49:22;10.40;60.50
37232;DHT22;23125;48.156;15.954;2023-12-20T12:51:48;10.40;60.40
37232;DHT22;23125;48.156;15.954;2023-12-20T12:54:14;10.40;60.30
37232;DHT22;23125;48.156;15.954;2023-12-20T12:56:43;10.40;60.40
37232;DHT22;23125;48.156;15.954;2023-12-20T12:59:10;10.40;60.40
37232;DHT22;23125;48.156;15.954;2023-12-20T13:01:36;10.40;60.30
37232;DHT22;23125;48.156;15.954;2023-12-20T13:04:02;10.40;60.40
37232;DHT22;23125;48.156;15.954;2023-12-20T13:06:32;10.40;60.50
37232;DHT22;23125;48.156;15.954;2023-12-20T13:08:58;10.40;60.60
37232;DHT22;23125;48.156;15.954;2023-12-20T13:11:24;10.40;60.70
37232;DHT22;23125;48.156;15.954;2023-12-20T13:13:50;10.40;60.60
37232;DHT22;23125;48.156;15.954;2023-12-20T13:16:16;10.40;60.50
37232;DHT22;23125;48.156;15.954;2023-12-20T13:18:42;10.40;60.50
37232;DHT22;23125;48.156;15.954;2023-12-20T13:21:08;10.40;60.50
37232;DHT22;23125;48.156;15.954;2023-12-20T13:23:35;10.40;60.50
37232;DHT22;23125;48.156;15.954;2023-12-20T13:26:01;10.40;60.50
37232;DHT22;23125;48.156;15.954;2023-12-20T13:28:28;10.40;60.60
37232;DHT22;23125;48.156;15.954;2023-12-20T13:30:54;10.40;60.60
37232;DHT22;23125;48.156;15.954;2023-12-20T13:33:20;10.40;60.50
37232;DHT22;23125;48.156;15.954;2023-12-20T13:35:45;10.40;60.50
37232;DHT22;23125;48.156;15.954;2023-12-20T13:38:13;10.40;60.40
37232;DHT22;23125;48.156;15.954;2023-12-20T13:40:39;10.40;60.40
37232;DHT22;23125;48.156;15.954;2023-12-20T13:43:05;10.40;60.50
37232;DHT22;23125;48.156;15.954;2023-12-20T13:45:32;10.40;60.60
37232;DHT22;23125;48.156;15.954;2023-12-20T13:47:58;10.40;60.50
37232;DHT22;23125;48.156;15.954;2023-12-20T13:50:24;10.30;60.40
37232;DHT22;23125;48.156;15.954;2023-12-20T13:52:52;10.30;60.50
37232;DHT22;23125;48.156;15.954;2023-12-20T13:55:17;10.30;60.60
37232;DHT22;23125;48.156;15.954;2023-12-20T13:57:46;10.30;60.60
37232;DHT22;23125;48.156;15.954;2023-12-20T14:00:14;10.30;60.50
37232;DHT22;23125;48.156;15.954;2023-12-20T14:02:43;10.30;60.50
37232;DHT22;23125;48.156;15.954;2023-12-20T14:05:09;10.30;60.50
37232;DHT22;23125;48.156;15.954;2023-12-20T14:07:36;10.30;60.50
37232;DHT22;23125;48.156;15.954;2023-12-20T14:10:03;10.30;60.60
37232;DHT22;23125;48.156;15.954;2023-12-20T14:12:29;10.30;60.70
37232;DHT22;23125;48.156;15.954;2023-12-20T14:14:55;10.30;60.80
37232;DHT22;23125;48.156;15.954;2023-12-20T14:17:22;10.20;60.60
37232;DHT22;23125;48.156;15.954;2023-12-20T14:19:48;10.20;60.70
37232;DHT22;23125;48.156;15.954;2023-12-20T14:22:14;10.20;60.70
37232;DHT22;23125;48.156;15.954;2023-12-20T14:24:42;10.20;60.70
37232;DHT22;23125;48.156;15.954;2023-12-20T14:27:08;10.20;60.80
37232;DHT22;23125;48.156;15.954;2023-12-20T14:29:35;10.20;60.80
37232;DHT22;23125;48.156;15.954;2023-12-20T14:32:01;10.20;60.80
37232;DHT22;23125;48.156;15.954;2023-12-20T14:34:29;10.20;60.80
37232;DHT22;23125;48.156;15.954;2023-12-20T14:36:55;10.20;60.90
37232;DHT22;23125;48.156;15.954;2023-12-20T14:39:21;10.20;60.90
37232;DHT22;23125;48.156;15.954;2023-12-20T14:41:48;10.20;61.00
37232;DHT22;23125;48.156;15.954;2023-12-20T14:44:14;10.20;61.00
37232;DHT22;23125;48.156;15.954;2023-12-20T14:46:40;10.20;61.00
37232;DHT22;23125;48.156;15.954;2023-12-20T14:49:06;10.20;61.10
37232;DHT22;23125;48.156;15.954;2023-12-20T14:51:32;10.20;61.00
37232;DHT22;23125;48.156;15.954;2023-12-20T14:53:57;10.20;61.00
37232;DHT22;23125;48.156;15.954;2023-12-20T14:56:24;10.20;61.00
37232;DHT22;23125;48.156;15.954;2023-12-20T14:58:52;10.20;61.00
37232;DHT22;23125;48.156;15.954;2023-12-20T15:01:18;10.20;61.10
37232;DHT22;23125;48.156;15.954;2023-12-20T15:03:47;10.20;61.00
37232;DHT22;23125;48.156;15.954;2023-12-20T15:06:14;10.20;61.00
37232;DHT22;23125;48.156;15.954;2023-12-20T15:08:39;10.20;61.10
37232;DHT22;23125;48.156;15.954;2023-12-20T15:11:05;10.20;61.10
37232;DHT22;23125;48.156;15.954;2023-12-20T15:13:31;10.20;61.10
37232;DHT22;23125;48.156;15.954;2023-12-20T15:15:58;10.20;61.20
37232;DHT22;23125;48.156;15.954;2023-12-20T15:18:24;10.10;61.10
37232;DHT22;23125;48.156;15.954;2023-12-20T15:20:50;10.20;61.10
37232;DHT22;23125;48.156;15.954;2023-12-20T15:23:16;10.20;61.10
37232;DHT22;23125;48.156;15.954;2023-12-20T15:25:43;10.20;61.20
37232;DHT22;23125;48.156;15.954;2023-12-20T15:28:09;10.10;61.10
37232;DHT22;23125;48.156;15.954;2023-12-20T15:30:35;10.10;61.20
37232;DHT22;23125;48.156;15.954;2023-12-20T15:33:01;10.10;61.20
37232;DHT22;23125;48.156;15.954;2023-12-20T15:35:28;10.10;61.10